createdAt,value
2018-06-13T00:00:05.798Z,15.22
2018-06-13T00:01:06.510Z,15.29
2018-06-13T00:02:07.222Z,15.28
2018-06-13T00:03:07.933Z,15.25
2018-06-13T00:04:08.645Z,15.31
2018-06-13T00:05:09.356Z,15.27
2018-06-13T00:06:10.067Z,15.25
2018-06-13T00:07:10.780Z,15.31
2018-06-13T00:08:11.491Z,15.35
2018-06-13T00:09:12.202Z,15.31
2018-06-13T00:10:12.912Z,15.22
2018-06-13T00:11:13.636Z,15.25
2018-06-13T00:12:14.347Z,15.31
2018-06-13T00:13:15.059Z,15.31
2018-06-13T00:14:15.785Z,15.21
2018-06-13T00:15:16.510Z,15.18
2018-06-13T00:16:17.234Z,15.22
2018-06-13T00:17:17.946Z,15.24
2018-06-13T00:18:18.657Z,15.17
2018-06-13T00:19:19.370Z,15.19
2018-06-13T00:20:20.080Z,15.22
2018-06-13T00:21:20.801Z,15.27
2018-06-13T00:22:21.512Z,15.18
2018-06-13T00:23:22.226Z,15.22
2018-06-13T00:24:22.936Z,15.22
2018-06-13T00:25:23.647Z,15.19
2018-06-13T00:26:24.357Z,15.14
2018-06-13T00:27:25.070Z,15.24
2018-06-13T00:28:25.779Z,15.19
2018-06-13T00:29:26.489Z,15.18
2018-06-13T00:30:27.212Z,15.24
2018-06-13T00:31:27.926Z,15.25
2018-06-13T00:32:28.640Z,15.25
2018-06-13T00:33:29.351Z,15.27
2018-06-13T00:34:30.067Z,15.17
2018-06-13T00:35:30.775Z,15.21
2018-06-13T00:36:31.487Z,15.18
2018-06-13T00:37:32.200Z,15.15
2018-06-13T00:38:32.911Z,15.25
2018-06-13T00:39:33.624Z,15.29
2018-06-13T00:40:34.352Z,15.10
2018-06-13T00:41:35.073Z,15.19
2018-06-13T00:42:35.786Z,15.17
2018-06-13T00:43:36.500Z,15.15
2018-06-13T00:44:37.224Z,15.14
2018-06-13T00:45:37.934Z,15.14
2018-06-13T00:46:38.643Z,15.18
2018-06-13T00:47:39.355Z,15.11
2018-06-13T00:48:40.067Z,15.14
2018-06-13T00:49:40.782Z,15.15
2018-06-13T00:50:41.491Z,15.11
2018-06-13T00:51:42.215Z,15.22
2018-06-13T00:52:42.939Z,15.22
2018-06-13T00:53:43.661Z,15.14
2018-06-13T00:54:44.372Z,15.18
2018-06-13T00:55:45.083Z,15.14
2018-06-13T00:56:45.794Z,15.10
2018-06-13T00:57:46.506Z,15.18
2018-06-13T00:58:47.233Z,15.07
2018-06-13T00:59:47.954Z,15.17
2018-06-13T01:00:48.666Z,15.18
2018-06-13T01:01:49.377Z,15.09
2018-06-13T01:02:50.089Z,15.14
2018-06-13T01:03:50.800Z,15.15
2018-06-13T01:04:51.511Z,15.10
2018-06-13T01:05:52.225Z,15.04
2018-06-13T01:06:52.933Z,15.03
2018-06-13T01:07:53.648Z,15.06
2018-06-13T01:08:54.358Z,15.02
2018-06-13T01:09:55.069Z,14.99
2018-06-13T01:10:55.782Z,15.11
2018-06-13T01:11:56.493Z,15.10
2018-06-13T01:12:57.214Z,15.04
2018-06-13T01:13:57.965Z,15.02
2018-06-13T01:14:58.638Z,15.02
2018-06-13T01:15:59.348Z,15.07
2018-06-13T01:17:00.071Z,15.09
2018-06-13T01:18:00.780Z,15.06
2018-06-13T01:19:01.490Z,15.02
2018-06-13T01:20:02.202Z,15.00
2018-06-13T01:21:02.913Z,15.09
2018-06-13T01:22:03.635Z,15.03
2018-06-13T01:23:04.345Z,14.92
2018-06-13T01:24:05.054Z,15.06
2018-06-13T01:25:05.778Z,14.92
2018-06-13T01:26:06.488Z,14.97
2018-06-13T01:27:07.210Z,14.99
2018-06-13T01:28:07.918Z,14.96
2018-06-13T01:29:08.677Z,14.96
2018-06-13T01:30:09.354Z,14.97
2018-06-13T01:31:10.065Z,14.94
2018-06-13T01:32:10.789Z,14.94
2018-06-13T01:33:11.501Z,14.96
2018-06-13T01:34:12.214Z,14.97
2018-06-13T01:35:12.928Z,14.89
2018-06-13T01:36:13.641Z,14.86
2018-06-13T01:37:14.363Z,14.89
2018-06-13T01:38:15.077Z,14.94
2018-06-13T01:39:15.797Z,14.88
2018-06-13T01:40:16.508Z,14.88
2018-06-13T01:41:17.219Z,14.91
2018-06-13T01:42:17.930Z,14.84
2018-06-13T01:43:18.640Z,14.89
2018-06-13T01:44:19.349Z,14.88
2018-06-13T01:45:20.059Z,14.88
2018-06-13T01:46:20.769Z,14.86
2018-06-13T01:47:21.489Z,14.82
2018-06-13T01:48:22.199Z,14.86
2018-06-13T01:49:22.909Z,14.88
2018-06-13T01:50:23.620Z,14.94
2018-06-13T01:51:24.330Z,14.89
2018-06-13T01:52:25.041Z,14.92
2018-06-13T01:53:25.751Z,14.92
2018-06-13T01:54:26.476Z,14.89
2018-06-13T01:55:27.187Z,14.86
2018-06-13T01:56:27.897Z,14.82
2018-06-13T01:57:28.606Z,14.84
2018-06-13T01:58:29.328Z,14.85
2018-06-13T01:59:30.039Z,14.81
2018-06-13T02:00:30.749Z,14.79
2018-06-13T02:01:31.457Z,14.86
2018-06-13T02:02:32.169Z,14.84
2018-06-13T02:03:32.881Z,14.84
2018-06-13T02:04:33.593Z,14.84
2018-06-13T02:05:34.302Z,14.82
2018-06-13T02:06:35.015Z,14.81
2018-06-13T02:07:35.729Z,14.82
2018-06-13T02:08:36.448Z,14.85
2018-06-13T02:09:37.160Z,14.82
2018-06-13T02:10:37.870Z,14.77
2018-06-13T02:11:38.616Z,14.81
2018-06-13T02:12:39.291Z,14.77
2018-06-13T02:13:40.015Z,14.79
2018-06-13T02:14:40.736Z,14.69
2018-06-13T02:15:41.449Z,14.79
2018-06-13T02:16:42.160Z,14.73
2018-06-13T02:17:42.871Z,14.77
2018-06-13T02:18:43.582Z,14.68
2018-06-13T02:19:44.291Z,14.78
2018-06-13T02:20:45.003Z,14.79
2018-06-13T02:21:45.712Z,14.72
2018-06-13T02:22:46.421Z,14.69
2018-06-13T02:23:47.130Z,14.82
2018-06-13T02:24:47.841Z,14.69
2018-06-13T02:25:48.555Z,14.68
2018-06-13T02:26:49.269Z,14.72
2018-06-13T02:27:49.978Z,14.69
2018-06-13T02:28:50.688Z,14.73
2018-06-13T02:29:51.412Z,14.68
2018-06-13T02:30:52.123Z,14.79
2018-06-13T02:31:52.834Z,14.77
2018-06-13T02:32:53.544Z,14.72
2018-06-13T02:33:54.253Z,14.72
2018-06-13T02:34:54.965Z,14.72
2018-06-13T02:35:55.685Z,14.84
2018-06-13T02:36:56.390Z,14.73
2018-06-13T02:37:57.114Z,14.73
2018-06-13T02:38:57.824Z,14.65
2018-06-13T02:39:58.543Z,14.77
2018-06-13T02:40:59.254Z,14.69
2018-06-13T02:41:59.977Z,14.69
2018-06-13T02:43:00.685Z,14.73
2018-06-13T02:44:01.408Z,14.62
2018-06-13T02:45:02.121Z,14.65
2018-06-13T02:46:02.838Z,14.69
2018-06-13T02:47:03.549Z,14.62
2018-06-13T02:48:04.261Z,14.66
2018-06-13T02:49:04.986Z,14.63
2018-06-13T02:50:05.707Z,14.63
2018-06-13T02:51:06.432Z,14.55
2018-06-13T02:52:07.141Z,14.63
2018-06-13T02:53:07.854Z,14.62
2018-06-13T02:54:08.569Z,14.73
2018-06-13T02:55:09.289Z,14.69
2018-06-13T02:56:10.020Z,14.70
2018-06-13T02:57:10.737Z,14.72
2018-06-13T02:58:11.449Z,14.58
2018-06-13T02:59:12.160Z,14.59
2018-06-13T03:00:12.883Z,14.69
2018-06-13T03:01:13.593Z,14.63
2018-06-13T03:02:14.307Z,14.69
2018-06-13T03:03:15.019Z,14.70
2018-06-13T03:04:15.731Z,14.63
2018-06-13T03:05:16.446Z,14.63
2018-06-13T03:06:17.164Z,14.59
2018-06-13T03:07:17.877Z,14.65
2018-06-13T03:08:18.590Z,14.66
2018-06-13T03:09:19.319Z,14.69
2018-06-13T03:10:20.028Z,14.60
2018-06-13T03:11:20.742Z,14.63
2018-06-13T03:12:21.455Z,14.66
2018-06-13T03:13:22.167Z,14.60
2018-06-13T03:14:22.880Z,14.65
2018-06-13T03:15:23.591Z,14.65
2018-06-13T03:16:24.302Z,14.54
2018-06-13T03:17:25.026Z,14.62
2018-06-13T03:18:25.737Z,14.62
2018-06-13T03:19:26.483Z,14.59
2018-06-13T03:20:27.170Z,14.62
2018-06-13T03:21:27.882Z,14.58
2018-06-13T03:22:28.595Z,14.62
2018-06-13T03:23:29.308Z,14.63
2018-06-13T03:24:30.032Z,14.62
2018-06-13T03:25:30.745Z,14.60
2018-06-13T03:26:31.458Z,14.53
2018-06-13T03:27:32.172Z,14.54
2018-06-13T03:28:32.884Z,14.53
2018-06-13T03:29:33.597Z,14.59
2018-06-13T03:30:34.311Z,14.54
2018-06-13T03:31:35.027Z,14.54
2018-06-13T03:32:35.742Z,14.51
2018-06-13T03:33:36.466Z,14.45
2018-06-13T03:34:37.186Z,14.53
2018-06-13T03:35:37.891Z,14.54
2018-06-13T03:36:38.609Z,14.55
2018-06-13T03:37:39.327Z,14.55
2018-06-13T03:38:40.041Z,14.55
2018-06-13T03:39:40.754Z,14.53
2018-06-13T03:40:41.465Z,14.48
2018-06-13T03:41:42.181Z,14.54
2018-06-13T03:42:42.906Z,14.48
2018-06-13T03:43:43.620Z,14.48
2018-06-13T03:44:44.345Z,14.44
2018-06-13T03:45:45.059Z,14.51
2018-06-13T03:46:45.772Z,14.37
2018-06-13T03:47:46.486Z,14.41
2018-06-13T03:48:47.201Z,14.45
2018-06-13T03:49:47.913Z,14.44
2018-06-13T03:50:48.629Z,14.44
2018-06-13T03:51:49.354Z,14.50
2018-06-13T03:52:50.071Z,14.43
2018-06-13T03:53:50.786Z,14.51
2018-06-13T03:54:51.502Z,14.43
2018-06-13T03:55:52.226Z,14.45
2018-06-13T03:56:52.950Z,14.41
2018-06-13T03:57:53.667Z,14.53
2018-06-13T03:58:54.392Z,14.43
2018-06-13T03:59:55.105Z,14.44
2018-06-13T04:00:55.819Z,14.44
2018-06-13T04:01:56.544Z,14.47
2018-06-13T04:02:57.260Z,14.44
2018-06-13T04:03:57.983Z,14.50
2018-06-13T04:04:58.697Z,14.48
2018-06-13T04:05:59.410Z,14.55
2018-06-13T04:07:00.123Z,14.51
2018-06-13T04:08:00.838Z,14.51
2018-06-13T04:09:01.552Z,14.51
2018-06-13T04:10:02.267Z,14.60
2018-06-13T04:11:02.981Z,14.50
2018-06-13T04:12:03.699Z,14.51
2018-06-13T04:13:04.413Z,14.55
2018-06-13T04:14:05.137Z,14.53
2018-06-13T04:15:05.852Z,14.54
2018-06-13T04:16:06.565Z,14.55
2018-06-13T04:17:07.281Z,14.51
2018-06-13T04:18:07.998Z,14.53
2018-06-13T04:19:08.723Z,14.54
2018-06-13T04:20:09.440Z,14.48
2018-06-13T04:21:10.153Z,14.54
2018-06-13T04:22:10.868Z,14.58
2018-06-13T04:23:11.590Z,14.55
2018-06-13T04:24:12.304Z,14.59
2018-06-13T04:25:13.034Z,14.62
2018-06-13T04:26:13.761Z,14.66
2018-06-13T04:27:14.487Z,14.62
2018-06-13T04:28:15.204Z,14.63
2018-06-13T04:29:15.932Z,14.63
2018-06-13T04:30:16.649Z,14.68
2018-06-13T04:31:17.365Z,14.77
2018-06-13T04:32:18.091Z,14.77
2018-06-13T04:33:18.807Z,14.85
2018-06-13T04:34:19.521Z,14.81
2018-06-13T04:35:20.235Z,14.82
2018-06-13T04:36:20.950Z,14.81
2018-06-13T04:37:21.665Z,14.79
2018-06-13T04:38:22.380Z,14.78
2018-06-13T04:39:23.098Z,14.79
2018-06-13T04:40:23.825Z,14.79
2018-06-13T04:41:24.539Z,14.86
2018-06-13T04:42:25.255Z,14.82
2018-06-13T04:43:25.970Z,14.82
2018-06-13T04:44:26.685Z,14.86
2018-06-13T04:45:27.399Z,14.86
2018-06-13T04:46:28.114Z,14.88
2018-06-13T04:47:28.830Z,14.88
2018-06-13T04:48:29.545Z,14.91
2018-06-13T04:49:30.259Z,14.99
2018-06-13T04:50:30.975Z,14.89
2018-06-13T04:51:31.692Z,14.94
2018-06-13T04:52:32.419Z,14.89
2018-06-13T04:53:33.144Z,14.91
2018-06-13T04:54:33.859Z,14.85
2018-06-13T04:55:34.576Z,14.92
2018-06-13T04:56:35.288Z,14.92
2018-06-13T04:57:36.005Z,14.96
2018-06-13T04:58:36.720Z,14.96
2018-06-13T04:59:37.437Z,14.97
2018-06-13T05:00:38.153Z,14.91
2018-06-13T05:01:38.868Z,14.94
2018-06-13T05:02:39.596Z,14.94
2018-06-13T05:03:40.311Z,14.91
2018-06-13T05:04:41.028Z,14.96
2018-06-13T05:05:41.741Z,14.96
2018-06-13T05:06:42.455Z,14.97
2018-06-13T05:07:43.184Z,14.99
2018-06-13T05:08:43.899Z,15.02
2018-06-13T05:09:44.615Z,15.03
2018-06-13T05:10:45.331Z,15.03
2018-06-13T05:11:46.045Z,15.09
2018-06-13T05:12:46.761Z,15.14
2018-06-13T05:13:47.476Z,15.18
2018-06-13T05:14:48.214Z,15.19
2018-06-13T05:15:48.929Z,15.21
2018-06-13T05:16:49.644Z,15.33
2018-06-13T05:17:50.365Z,15.31
2018-06-13T05:18:51.081Z,15.22
2018-06-13T05:19:51.804Z,15.29
2018-06-13T05:20:52.518Z,15.31
2018-06-13T05:21:53.233Z,15.29
2018-06-13T05:22:53.948Z,15.43
2018-06-13T05:23:54.662Z,15.42
2018-06-13T05:24:55.377Z,15.37
2018-06-13T05:25:56.092Z,15.43
2018-06-13T05:26:56.823Z,15.47
2018-06-13T05:27:57.539Z,15.57
2018-06-13T05:28:58.253Z,15.49
2018-06-13T05:29:58.968Z,15.57
2018-06-13T05:30:59.695Z,15.42
2018-06-13T05:32:00.412Z,15.47
2018-06-13T05:33:01.128Z,15.42
2018-06-13T05:34:01.844Z,15.47
2018-06-13T05:35:02.560Z,15.40
2018-06-13T05:36:03.276Z,15.52
2018-06-13T05:37:03.996Z,15.47
2018-06-13T05:38:04.724Z,15.40
2018-06-13T05:39:05.452Z,15.43
2018-06-13T05:40:06.172Z,15.46
2018-06-13T05:41:06.903Z,15.49
2018-06-13T05:42:07.617Z,15.52
2018-06-13T05:43:08.347Z,15.57
2018-06-13T05:44:09.064Z,15.54
2018-06-13T05:45:09.781Z,15.64
2018-06-13T05:46:10.501Z,15.61
2018-06-13T05:47:11.218Z,15.68
2018-06-13T05:48:11.935Z,15.64
2018-06-13T05:49:12.653Z,15.58
2018-06-13T05:50:13.370Z,15.52
2018-06-13T05:51:14.088Z,15.52
2018-06-13T05:52:14.805Z,15.43
2018-06-13T05:53:15.536Z,15.43
2018-06-13T05:54:16.255Z,15.51
2018-06-13T05:55:16.970Z,15.44
2018-06-13T05:56:17.686Z,15.40
2018-06-13T05:57:18.403Z,15.49
2018-06-13T05:58:19.119Z,15.46
2018-06-13T05:59:19.836Z,15.43
2018-06-13T06:00:20.553Z,15.42
2018-06-13T06:01:21.308Z,15.40
2018-06-13T06:02:21.986Z,15.37
2018-06-13T06:03:22.700Z,15.39
2018-06-13T06:04:23.417Z,15.46
2018-06-13T06:05:24.132Z,15.43
2018-06-13T06:06:24.848Z,15.44
2018-06-13T06:07:25.577Z,15.39
2018-06-13T06:08:26.292Z,15.42
2018-06-13T06:09:27.009Z,15.49
2018-06-13T06:10:27.837Z,15.36
2018-06-13T06:11:28.442Z,15.52
2018-06-13T06:12:29.161Z,15.59
2018-06-13T06:13:29.877Z,15.55
2018-06-13T06:14:30.598Z,15.57
2018-06-13T06:15:31.310Z,15.52
2018-06-13T06:16:32.029Z,15.55
2018-06-13T06:17:32.747Z,15.64
2018-06-13T06:18:33.464Z,15.65
2018-06-13T06:19:34.193Z,15.72
2018-06-13T06:20:34.912Z,15.76
2018-06-13T06:21:35.629Z,15.84
2018-06-13T06:22:36.349Z,15.80
2018-06-13T06:23:37.082Z,16.01
2018-06-13T06:24:37.786Z,15.97
2018-06-13T06:25:38.504Z,15.94
2018-06-13T06:26:39.221Z,15.91
2018-06-13T06:27:39.939Z,16.00
2018-06-13T06:28:40.655Z,15.95
2018-06-13T06:29:41.373Z,15.97
2018-06-13T06:30:42.091Z,16.05
2018-06-13T06:31:42.810Z,16.01
2018-06-13T06:32:43.528Z,16.04
2018-06-13T06:33:44.246Z,16.10
2018-06-13T06:34:44.976Z,16.13
2018-06-13T06:35:45.695Z,16.05
2018-06-13T06:36:46.410Z,16.21
2018-06-13T06:37:47.129Z,16.24
2018-06-13T06:38:47.847Z,16.35
2018-06-13T06:39:48.580Z,16.28
2018-06-13T06:40:49.310Z,16.38
2018-06-13T06:41:50.041Z,16.39
2018-06-13T06:42:50.758Z,16.38
2018-06-13T06:43:51.488Z,16.38
2018-06-13T06:44:52.206Z,16.23
2018-06-13T06:45:52.923Z,16.21
2018-06-13T06:46:53.641Z,16.08
2018-06-13T06:47:54.359Z,16.24
2018-06-13T06:48:55.091Z,16.15
2018-06-13T06:49:55.821Z,16.21
2018-06-13T06:50:56.539Z,16.29
2018-06-13T06:51:57.256Z,16.29
2018-06-13T06:52:57.990Z,16.35
2018-06-13T06:53:58.715Z,16.29
2018-06-13T06:54:59.444Z,16.41
2018-06-13T06:56:00.176Z,16.43
2018-06-13T06:57:00.906Z,16.41
2018-06-13T06:58:01.636Z,16.57
2018-06-13T06:59:02.354Z,16.51
2018-06-13T07:00:03.074Z,16.53
2018-06-13T07:01:03.803Z,16.64
2018-06-13T07:02:04.521Z,16.78
2018-06-13T07:03:05.239Z,16.93
2018-06-13T07:04:05.958Z,16.91
2018-06-13T07:05:06.688Z,16.97
2018-06-13T07:06:07.409Z,16.96
2018-06-13T07:07:08.131Z,17.05
2018-06-13T07:08:08.859Z,17.05
2018-06-13T07:09:09.579Z,17.12
2018-06-13T07:10:10.298Z,17.24
2018-06-13T07:11:11.021Z,17.24
2018-06-13T07:12:11.753Z,17.36
2018-06-13T07:14:13.199Z,17.41
2018-06-13T07:15:13.931Z,17.54
2018-06-13T07:16:14.651Z,17.63
2018-06-13T07:17:15.371Z,17.68
2018-06-13T07:18:16.089Z,17.63
2018-06-13T07:19:16.809Z,17.71
2018-06-13T07:20:17.530Z,17.71
2018-06-13T07:21:18.251Z,17.72
2018-06-13T07:22:18.969Z,17.60
2018-06-13T07:23:19.689Z,17.67
2018-06-13T07:24:20.423Z,17.60
2018-06-13T07:25:21.143Z,17.64
2018-06-13T07:26:21.863Z,17.48
2018-06-13T07:27:22.582Z,17.64
2018-06-13T07:28:23.303Z,17.57
2018-06-13T07:29:24.022Z,17.59
2018-06-13T07:30:24.754Z,17.46
2018-06-13T07:31:25.475Z,17.52
2018-06-13T07:32:26.191Z,17.39
2018-06-13T07:33:26.911Z,17.41
2018-06-13T07:34:27.635Z,17.48
2018-06-13T07:35:28.351Z,17.42
2018-06-13T07:36:29.081Z,17.51
2018-06-13T07:37:29.807Z,17.51
2018-06-13T07:38:30.523Z,17.49
2018-06-13T07:39:31.241Z,17.52
2018-06-13T07:40:31.961Z,17.49
2018-06-13T07:41:32.731Z,17.41
2018-06-13T07:42:33.412Z,17.38
2018-06-13T07:43:34.145Z,17.34
2018-06-13T07:44:34.863Z,17.29
2018-06-13T07:45:35.581Z,17.27
2018-06-13T07:46:36.299Z,17.22
2018-06-13T07:47:37.030Z,17.23
2018-06-13T07:48:37.763Z,17.24
2018-06-13T07:49:38.530Z,17.09
2018-06-13T07:50:39.212Z,17.08
2018-06-13T07:51:39.931Z,17.20
2018-06-13T07:52:40.647Z,17.09
2018-06-13T07:53:41.365Z,17.08
2018-06-13T07:54:42.084Z,17.11
2018-06-13T07:55:42.802Z,17.04
2018-06-13T07:56:43.522Z,17.12
2018-06-13T07:57:44.243Z,17.06
2018-06-13T07:58:44.962Z,17.02
2018-06-13T07:59:45.680Z,17.11
2018-06-13T08:00:46.397Z,17.05
2018-06-13T08:01:47.114Z,17.08
2018-06-13T08:02:47.836Z,17.23
2018-06-13T08:03:48.555Z,17.29
2018-06-13T08:04:49.272Z,17.30
2018-06-13T08:05:49.990Z,17.42
2018-06-13T08:06:50.708Z,17.42
2018-06-13T08:07:51.427Z,17.49
2018-06-13T08:08:52.169Z,17.44
2018-06-13T08:09:52.867Z,17.38
2018-06-13T08:10:53.597Z,17.38
2018-06-13T08:11:54.316Z,17.29
2018-06-13T08:12:55.036Z,17.36
2018-06-13T08:13:55.753Z,17.29
2018-06-13T08:14:56.472Z,17.16
2018-06-13T08:15:57.206Z,17.08
2018-06-13T08:16:57.983Z,17.05
2018-06-13T08:17:58.643Z,16.99
2018-06-13T08:18:59.363Z,16.87
2018-06-13T08:20:00.085Z,16.89
2018-06-13T08:21:00.808Z,16.86
2018-06-13T08:22:01.539Z,16.87
2018-06-13T08:23:02.268Z,16.87
2018-06-13T08:24:02.997Z,16.78
2018-06-13T08:25:03.716Z,16.75
2018-06-13T08:26:04.458Z,16.66
2018-06-13T08:27:05.152Z,16.57
2018-06-13T08:28:05.881Z,16.50
2018-06-13T08:29:06.598Z,16.50
2018-06-13T08:30:07.316Z,16.41
2018-06-13T08:31:08.035Z,16.35
2018-06-13T08:32:08.753Z,16.36
2018-06-13T08:33:09.471Z,16.39
2018-06-13T08:34:10.191Z,16.36
2018-06-13T08:35:10.909Z,16.36
2018-06-13T08:36:11.627Z,16.47
2018-06-13T08:37:12.363Z,16.51
2018-06-13T08:38:13.088Z,16.51
2018-06-13T08:39:13.806Z,16.56
2018-06-13T08:40:14.524Z,16.54
2018-06-13T08:41:15.243Z,16.53
2018-06-13T08:42:15.959Z,16.57
2018-06-13T08:43:16.687Z,16.66
2018-06-13T08:44:17.404Z,16.58
2018-06-13T08:45:18.121Z,16.64
2018-06-13T08:46:18.838Z,16.66
2018-06-13T08:47:19.570Z,16.56
2018-06-13T08:48:20.287Z,16.60
2018-06-13T08:49:21.004Z,16.69
2018-06-13T08:50:21.720Z,16.72
2018-06-13T08:51:22.438Z,16.69
2018-06-13T08:52:23.156Z,16.75
2018-06-13T08:53:23.884Z,16.76
2018-06-13T08:54:24.615Z,16.66
2018-06-13T08:55:25.334Z,16.58
2018-06-13T08:56:26.050Z,16.57
2018-06-13T08:57:26.770Z,16.56
2018-06-13T08:58:27.490Z,16.60
2018-06-13T08:59:28.206Z,16.64
2018-06-13T09:00:28.923Z,16.66
2018-06-13T09:01:29.641Z,16.54
2018-06-13T09:02:30.372Z,16.54
2018-06-13T09:03:31.089Z,16.53
2018-06-13T09:04:31.805Z,16.64
2018-06-13T09:05:32.524Z,16.74
2018-06-13T09:06:33.253Z,16.89
2018-06-13T09:07:33.973Z,16.86
2018-06-13T09:08:34.705Z,16.91
2018-06-13T09:09:35.423Z,17.12
2018-06-13T09:10:36.141Z,17.19
2018-06-13T09:11:36.861Z,17.39
2018-06-13T09:12:37.582Z,17.41
2018-06-13T09:13:38.313Z,17.64
2018-06-13T09:14:39.036Z,17.65
2018-06-13T09:15:39.757Z,17.79
2018-06-13T09:16:40.476Z,17.80
2018-06-13T09:17:41.197Z,18.10
2018-06-13T09:18:41.921Z,18.19
2018-06-13T09:19:42.654Z,18.33
2018-06-13T09:20:43.387Z,18.52
2018-06-13T09:21:44.109Z,18.65
2018-06-13T09:22:44.832Z,18.80
2018-06-13T09:23:45.567Z,18.75
2018-06-13T09:24:46.299Z,19.08
2018-06-13T09:25:47.022Z,19.11
2018-06-13T09:26:47.745Z,19.26
2018-06-13T09:27:48.466Z,19.34
2018-06-13T09:28:49.188Z,19.34
2018-06-13T09:29:49.924Z,19.40
2018-06-13T09:30:50.657Z,19.39
2018-06-13T09:31:51.380Z,19.33
2018-06-13T09:32:52.114Z,19.41
2018-06-13T09:33:52.838Z,19.39
2018-06-13T09:34:53.561Z,19.54
2018-06-13T09:35:54.295Z,19.56
2018-06-13T09:36:55.030Z,19.82
2018-06-13T09:37:55.754Z,19.77
2018-06-13T09:38:56.478Z,19.88
2018-06-13T09:39:57.199Z,19.96
2018-06-13T09:40:57.924Z,19.95
2018-06-13T09:41:58.648Z,20.00
2018-06-13T09:42:59.388Z,19.94
2018-06-13T09:44:00.163Z,19.94
2018-06-13T09:45:00.850Z,19.94
2018-06-13T09:46:03.561Z,20.02
2018-06-13T09:47:06.906Z,19.86
2018-06-13T09:48:03.031Z,19.91
2018-06-13T09:49:03.757Z,19.82
2018-06-13T09:50:04.521Z,19.73
2018-06-13T09:51:05.216Z,19.66
2018-06-13T09:52:05.939Z,19.86
2018-06-13T09:53:06.676Z,19.86
2018-06-13T09:54:07.402Z,19.92
2018-06-13T09:55:08.135Z,19.94
2018-06-13T09:56:08.862Z,19.77
2018-06-13T09:57:09.587Z,19.63
2018-06-13T09:58:10.315Z,19.58
2018-06-13T09:59:11.050Z,19.54
2018-06-13T10:00:11.775Z,19.29
2018-06-13T10:01:12.499Z,19.27
2018-06-13T10:02:13.268Z,19.15
2018-06-13T10:03:13.942Z,19.08
2018-06-13T10:04:14.677Z,18.95
2018-06-13T10:05:15.412Z,18.75
2018-06-13T10:06:16.136Z,18.75
2018-06-13T10:07:16.858Z,18.80
2018-06-13T10:08:17.580Z,18.96
2018-06-13T10:09:18.303Z,18.90
2018-06-13T10:10:19.025Z,19.02
2018-06-13T10:11:19.769Z,19.09
2018-06-13T10:12:20.471Z,19.14
2018-06-13T10:13:21.193Z,19.14
2018-06-13T10:14:21.916Z,19.16
2018-06-13T10:15:22.638Z,19.08
2018-06-13T10:16:23.361Z,19.02
2018-06-13T10:17:24.085Z,19.12
2018-06-13T10:18:24.807Z,19.00
2018-06-13T10:19:25.541Z,19.16
2018-06-13T10:20:26.277Z,19.14
2018-06-13T10:21:26.999Z,19.18
2018-06-13T10:22:27.722Z,19.33
2018-06-13T10:23:28.443Z,19.26
2018-06-13T10:24:29.167Z,19.41
2018-06-13T10:25:29.945Z,19.58
2018-06-13T10:26:30.658Z,19.58
2018-06-13T10:27:31.341Z,19.58
2018-06-13T10:28:32.071Z,19.69
2018-06-13T10:29:32.794Z,19.70
2018-06-13T10:30:33.518Z,19.71
2018-06-13T10:31:34.241Z,19.69
2018-06-13T10:32:34.964Z,19.79
2018-06-13T10:33:35.689Z,19.88
2018-06-13T10:34:36.409Z,19.91
2018-06-13T10:35:37.133Z,19.63
2018-06-13T10:36:37.856Z,19.74
2018-06-13T10:37:38.594Z,19.86
2018-06-13T10:38:39.322Z,19.99
2018-06-13T10:39:40.048Z,20.09
2018-06-13T10:40:40.779Z,20.07
2018-06-13T10:41:41.504Z,20.10
2018-06-13T10:42:42.226Z,20.10
2018-06-13T10:43:42.964Z,20.09
2018-06-13T10:44:43.686Z,20.04
2018-06-13T10:45:44.410Z,20.16
2018-06-13T10:46:45.133Z,20.32
2018-06-13T10:47:45.860Z,20.32
2018-06-13T10:48:46.582Z,20.22
2018-06-13T10:49:47.309Z,20.09
2018-06-13T10:50:48.032Z,20.03
2018-06-13T10:51:48.754Z,19.91
2018-06-13T10:52:49.485Z,20.00
2018-06-13T10:53:50.246Z,20.10
2018-06-13T10:54:50.931Z,20.09
2018-06-13T10:55:51.658Z,20.39
2018-06-13T10:56:52.390Z,20.55
2018-06-13T10:57:53.108Z,20.60
2018-06-13T10:58:53.835Z,20.60
2018-06-13T10:59:54.564Z,20.78
2018-06-13T11:00:55.304Z,20.69
2018-06-13T11:01:56.032Z,20.63
2018-06-13T11:02:56.760Z,20.63
2018-06-13T11:03:57.485Z,20.62
2018-06-13T11:04:58.215Z,20.60
2018-06-13T11:05:58.943Z,20.43
2018-06-13T11:06:59.667Z,20.28
2018-06-13T11:08:00.405Z,20.10
2018-06-13T11:09:01.132Z,19.94
2018-06-13T11:10:01.860Z,19.91
2018-06-13T11:11:02.582Z,19.77
2018-06-13T11:12:03.303Z,19.52
2018-06-13T11:13:04.040Z,19.24
2018-06-13T11:14:04.761Z,19.40
2018-06-13T11:15:05.482Z,19.26
2018-06-13T11:16:06.207Z,19.19
2018-06-13T11:17:06.929Z,19.12
2018-06-13T11:18:07.654Z,19.00
2018-06-13T11:19:08.370Z,19.02
2018-06-13T11:20:09.091Z,19.18
2018-06-13T11:21:09.819Z,19.14
2018-06-13T11:22:10.538Z,19.27
2018-06-13T11:23:11.258Z,19.24
2018-06-13T11:24:11.980Z,19.34
2018-06-13T11:25:12.703Z,19.31
2018-06-13T11:26:13.452Z,19.45
2018-06-13T11:27:14.158Z,19.51
2018-06-13T11:28:14.879Z,19.71
2018-06-13T11:29:15.617Z,19.82
2018-06-13T11:30:16.347Z,19.76
2018-06-13T11:31:17.067Z,19.64
2018-06-13T11:32:17.789Z,19.52
2018-06-13T11:33:18.512Z,19.62
2018-06-13T11:34:19.233Z,19.51
2018-06-13T11:35:19.955Z,19.52
2018-06-13T11:36:20.679Z,19.56
2018-06-13T11:37:21.409Z,19.69
2018-06-13T11:38:22.143Z,19.76
2018-06-13T11:39:22.876Z,19.84
2018-06-13T11:40:23.597Z,19.84
2018-06-13T11:41:24.361Z,20.09
2018-06-13T11:42:25.063Z,20.04
2018-06-13T11:43:25.786Z,20.09
2018-06-13T11:44:26.508Z,20.09
2018-06-13T11:45:27.242Z,20.04
2018-06-13T11:46:27.965Z,20.14
2018-06-13T11:47:28.685Z,20.11
2018-06-13T11:48:29.407Z,20.10
2018-06-13T11:49:30.132Z,19.95
2018-06-13T11:50:30.866Z,19.88
2018-06-13T11:51:31.590Z,19.91
2018-06-13T11:52:32.313Z,19.81
2018-06-13T11:53:33.088Z,19.91
2018-06-13T11:54:33.769Z,19.95
2018-06-13T11:55:34.490Z,20.07
2018-06-13T11:56:35.213Z,19.95
2018-06-13T11:57:35.938Z,20.00
2018-06-13T11:58:36.673Z,19.96
2018-06-13T11:59:37.396Z,19.91
2018-06-13T12:00:38.117Z,19.94
2018-06-13T12:01:38.843Z,19.96
2018-06-13T12:02:39.560Z,20.03
2018-06-13T12:03:40.285Z,20.16
2018-06-13T12:04:41.007Z,20.28
2018-06-13T12:05:41.745Z,20.21
2018-06-13T12:06:42.467Z,20.29
2018-06-13T12:07:43.190Z,20.37
2018-06-13T12:08:43.913Z,20.59
2018-06-13T12:09:44.641Z,20.84
2018-06-13T12:10:45.369Z,20.67
2018-06-13T12:11:46.100Z,20.81
2018-06-13T12:12:46.825Z,21.02
2018-06-13T12:13:47.552Z,21.07
2018-06-13T12:14:48.285Z,21.37
2018-06-13T12:15:49.023Z,21.66
2018-06-13T12:16:49.780Z,22.25
2018-06-13T12:17:50.483Z,22.69
2018-06-13T12:18:51.214Z,23.08
2018-06-13T12:19:51.950Z,23.25
2018-06-13T12:20:52.677Z,23.23
2018-06-13T12:21:53.403Z,22.93
2018-06-13T12:22:54.132Z,22.57
2018-06-13T12:23:54.861Z,22.51
2018-06-13T12:24:55.589Z,22.28
2018-06-13T12:25:56.314Z,22.10
2018-06-13T12:26:57.061Z,21.79
2018-06-13T12:27:57.788Z,21.79
2018-06-13T12:28:58.514Z,21.77
2018-06-13T12:29:59.251Z,21.69
2018-06-13T12:30:59.989Z,21.66
2018-06-13T12:32:00.714Z,21.62
2018-06-13T12:33:01.456Z,21.80
2018-06-13T12:34:02.195Z,21.83
2018-06-13T12:35:02.936Z,22.13
2018-06-13T12:36:03.666Z,22.51
2018-06-13T12:37:04.406Z,23.05
2018-06-13T12:38:05.137Z,23.56
2018-06-13T12:39:05.870Z,23.63
2018-06-13T12:40:06.598Z,23.77
2018-06-13T12:41:07.327Z,23.68
2018-06-13T12:42:08.055Z,23.44
2018-06-13T12:43:08.782Z,22.93
2018-06-13T12:44:09.521Z,22.85
2018-06-13T12:45:10.249Z,22.85
2018-06-13T12:46:10.980Z,22.48
2018-06-13T12:47:11.709Z,22.33
2018-06-13T12:48:12.436Z,22.25
2018-06-13T12:49:13.162Z,21.98
2018-06-13T12:50:13.889Z,21.60
2018-06-13T12:51:14.609Z,21.69
2018-06-13T12:52:15.334Z,21.40
2018-06-13T12:53:16.059Z,21.11
2018-06-13T12:54:16.784Z,20.92
2018-06-13T12:55:17.508Z,20.90
2018-06-13T12:56:18.233Z,20.87
2018-06-13T12:57:18.964Z,20.81
2018-06-13T12:58:19.704Z,20.80
2018-06-13T12:59:20.433Z,20.69
2018-06-13T13:00:21.164Z,20.40
2018-06-13T13:01:21.893Z,20.10
2018-06-13T13:02:22.621Z,20.00